sensor_id;sensor_type;location;lat;lon;timestamp;temperature;humidity
36586;DHT22;22591;48.314;11.562;2023-07-13T00:00:28;18.30;99.90
36586;DHT22;22591;48.314;11.562;2023-07-13T00:02:54;18.30;99.90
36586;DHT22;22591;48.314;11.562;2023-07-13T00:05:21;18.40;99.90
36586;DHT22;22591;48.314;11.562;2023-07-13T00:07:47;18.40;99.90
36586;DHT22;22591;48.314;11.562;2023-07-13T00:10:13;18.40;99.90
36586;DHT22;22591;48.314;11.562;2023-07-13T00:12:39;18.40;99.90
36586;DHT22;22591;48.314;11.562;2023-07-13T00:15:12;18.50;99.90
36586;DHT22;22591;48.314;11.562;2023-07-13T00:17:37;18.40;99.90
36586;DHT22;22591;48.314;11.562;2023-07-13T00:20:05;18.40;99.90
36586;DHT22;22591;48.314;11.562;2023-07-13T00:22:31;18.50;99.90
36586;DHT22;22591;48.314;11.562;2023-07-13T00:24:56;18.50;99.90
36586;DHT22;22591;48.314;11.562;2023-07-13T00:27:23;18.50;99.90
36586;DHT22;22591;48.314;11.562;2023-07-13T00:29:48;18.40;99.90
36586;DHT22;22591;48.314;11.562;2023-07-13T00:32:14;18.50;99.90
36586;DHT22;22591;48.314;11.562;2023-07-13T00:34:40;18.50;99.90
36586;DHT22;22591;48.314;11.562;2023-07-13T00:37:06;18.50;99.90
36586;DHT22;22591;48.314;11.562;2023-07-13T00:39:34;18.50;99.90
36586;DHT22;22591;48.314;11.562;2023-07-13T00:42:00;18.50;99.90
36586;DHT22;22591;48.314;11.562;2023-07-13T00:44:26;18.50;99.90
36586;DHT22;22591;48.314;11.562;2023-07-13T00:46:52;18.50;99.90
36586;DHT22;22591;48.314;11.562;2023-07-13T00:49:20;18.40;99.90
36586;DHT22;22591;48.314;11.562;2023-07-13T00:51:54;18.40;99.90
36586;DHT22;22591;48.314;11.562;2023-07-13T00:54:28;18.40;99.90
36586;DHT22;22591;48.314;11.562;2023-07-13T00:56:57;18.50;99.90
36586;DHT22;22591;48.314;11.562;2023-07-13T00:59:24;18.40;99.90
36586;DHT22;22591;48.314;11.562;2023-07-13T01:01:51;18.40;99.90
36586;DHT22;22591;48.314;11.562;2023-07-13T01:04:17;18.40;99.90
36586;DHT22;22591;48.314;11.562;2023-07-13T01:06:43;18.40;99.90
36586;DHT22;22591;48.314;11.562;2023-07-13T01:09:10;18.50;99.90
36586;DHT22;22591;48.314;11.562;2023-07-13T01:11:36;18.50;99.90
36586;DHT22;22591;48.314;11.562;2023-07-13T01:14:02;18.50;99.90
36586;DHT22;22591;48.314;11.562;2023-07-13T01:16:31;18.50;99.90
36586;DHT22;22591;48.314;11.562;2023-07-13T01:18:57;18.50;99.90
36586;DHT22;22591;48.314;11.562;2023-07-13T01:21:24;18.50;99.90
36586;DHT22;22591;48.314;11.562;2023-07-13T01:23:50;18.50;99.90
36586;DHT22;22591;48.314;11.562;2023-07-13T01:26:16;18.50;99.90
36586;DHT22;22591;48.314;11.562;2023-07-13T01:28:41;18.50;99.90
36586;DHT22;22591;48.314;11.562;2023-07-13T01:31:07;18.60;99.90
36586;DHT22;22591;48.314;11.562;2023-07-13T01:33:36;18.60;99.90
36586;DHT22;22591;48.314;11.562;2023-07-13T01:36:02;18.60;99.90
36586;DHT22;22591;48.314;11.562;2023-07-13T01:38:27;18.60;99.90
36586;DHT22;22591;48.314;11.562;2023-07-13T01:40:53;18.60;99.90
36586;DHT22;22591;48.314;11.562;2023-07-13T01:43:19;18.60;99.90
36586;DHT22;22591;48.314;11.562;2023-07-13T01:45:45;18.60;99.90
36586;DHT22;22591;48.314;11.562;2023-07-13T01:48:11;18.50;99.90
36586;DHT22;22591;48.314;11.562;2023-07-13T01:50:37;18.50;99.90
36586;DHT22;22591;48.314;11.562;2023-07-13T01:53:03;18.40;99.90
36586;DHT22;22591;48.314;11.562;2023-07-13T01:55:29;18.40;99.90
36586;DHT22;22591;48.314;11.562;2023-07-13T01:57:55;18.30;99.90
36586;DHT22;22591;48.314;11.562;2023-07-13T02:00:21;18.30;99.90
36586;DHT22;22591;48.314;11.562;2023-07-13T02:02:47;18.30;99.90
36586;DHT22;22591;48.314;11.562;2023-07-13T02:05:13;18.30;99.90
36586;DHT22;22591;48.314;11.562;2023-07-13T02:07:39;18.30;99.90
36586;DHT22;22591;48.314;11.562;2023-07-13T02:10:06;18.30;99.90
36586;DHT22;22591;48.314;11.562;2023-07-13T02:12:32;18.30;99.90
36586;DHT22;22591;48.314;11.562;2023-07-13T02:14:58;18.20;99.90
36586;DHT22;22591;48.314;11.562;2023-07-13T02:17:23;18.10;99.90
36586;DHT22;22591;48.314;11.562;2023-07-13T02:19:49;18.10;99.90
36586;DHT22;22591;48.314;11.562;2023-07-13T02:22:15;18.20;99.90
36586;DHT22;22591;48.314;11.562;2023-07-13T02:24:40;18.20;99.90
36586;DHT22;22591;48.314;11.562;2023-07-13T02:27:06;18.20;99.90
36586;DHT22;22591;48.314;11.562;2023-07-13T02:29:32;18.10;99.90
36586;DHT22;22591;48.314;11.562;2023-07-13T02:31:57;18.20;99.90
36586;DHT22;22591;48.314;11.562;2023-07-13T02:34:23;18.10;99.90
36586;DHT22;22591;48.314;11.562;2023-07-13T02:36:48;18.20;99.90
36586;DHT22;22591;48.314;11.562;2023-07-13T02:39:14;18.20;99.90
36586;DHT22;22591;48.314;11.562;2023-07-13T02:41:40;18.20;99.90
36586;DHT22;22591;48.314;11.562;2023-07-13T02:44:06;18.20;99.90
36586;DHT22;22591;48.314;11.562;2023-07-13T02:46:35;18.20;99.90
36586;DHT22;22591;48.314;11.562;2023-07-13T02:49:01;18.20;99.90
36586;DHT22;22591;48.314;11.562;2023-07-13T02:51:27;18.30;99.90
36586;DHT22;22591;48.314;11.562;2023-07-13T02:53:52;18.30;99.90
36586;DHT22;22591;48.314;11.562;2023-07-13T02:56:23;18.30;99.90
36586;DHT22;22591;48.314;11.562;2023-07-13T02:58:48;18.40;99.90
36586;DHT22;22591;48.314;11.562;2023-07-13T03:01:14;18.30;99.90
36586;DHT22;22591;48.314;11.562;2023-07-13T03:03:47;18.40;99.90
36586;DHT22;22591;48.314;11.562;2023-07-13T03:06:13;18.30;99.90
36586;DHT22;22591;48.314;11.562;2023-07-13T03:08:39;18.30;99.90
36586;DHT22;22591;48.314;11.562;2023-07-13T03:11:07;18.30;99.90
36586;DHT22;22591;48.314;11.562;2023-07-13T03:13:33;18.30;99.90
36586;DHT22;22591;48.314;11.562;2023-07-13T03:16:00;18.30;99.90
36586;DHT22;22591;48.314;11.562;2023-07-13T03:18:27;18.30;99.90
36586;DHT22;22591;48.314;11.562;2023-07-13T03:20:53;18.20;99.90
36586;DHT22;22591;48.314;11.562;2023-07-13T03:23:20;18.20;99.90
36586;DHT22;22591;48.314;11.562;2023-07-13T03:25:46;18.20;99.90
36586;DHT22;22591;48.314;11.562;2023-07-13T03:28:12;18.20;99.90
36586;DHT22;22591;48.314;11.562;2023-07-13T03:30:38;18.10;99.90
36586;DHT22;22591;48.314;11.562;2023-07-13T03:33:04;18.20;99.90
36586;DHT22;22591;48.314;11.562;2023-07-13T03:35:30;18.10;99.90
36586;DHT22;22591;48.314;11.562;2023-07-13T03:37:58;18.10;99.90
36586;DHT22;22591;48.314;11.562;2023-07-13T03:40:24;18.20;99.90
36586;DHT22;22591;48.314;11.562;2023-07-13T03:42:51;18.20;99.90
36586;DHT22;22591;48.314;11.562;2023-07-13T03:45:17;18.20;99.90
36586;DHT22;22591;48.314;11.562;2023-07-13T03:47:43;18.10;99.90
36586;DHT22;22591;48.314;11.562;2023-07-13T03:50:09;18.20;99.90
36586;DHT22;22591;48.314;11.562;2023-07-13T03:52:34;18.20;99.90
36586;DHT22;22591;48.314;11.562;2023-07-13T03:55:00;18.20;99.90
36586;DHT22;22591;48.314;11.562;2023-07-13T03:57:26;18.20;99.90
36586;DHT22;22591;48.314;11.562;2023-07-13T03:59:51;18.20;99.90
36586;DHT22;22591;48.314;11.562;2023-07-13T04:02:17;18.20;99.90
36586;DHT22;22591;48.314;11.562;2023-07-13T04:04:43;18.20;99.90
36586;DHT22;22591;48.314;11.562;2023-07-13T04:07:09;18.20;99.90
36586;DHT22;22591;48.314;11.562;2023-07-13T04:09:35;18.20;99.90
36586;DHT22;22591;48.314;11.562;2023-07-13T04:12:01;18.20;99.90
36586;DHT22;22591;48.314;11.562;2023-07-13T04:14:27;18.30;99.90
36586;DHT22;22591;48.314;11.562;2023-07-13T04:16:52;18.30;99.90
36586;DHT22;22591;48.314;11.562;2023-07-13T04:19:20;18.30;99.90
36586;DHT22;22591;48.314;11.562;2023-07-13T04:21:45;18.20;99.90
36586;DHT22;22591;48.314;11.562;2023-07-13T04:24:11;18.20;99.90
36586;DHT22;22591;48.314;11.562;2023-07-13T04:26:37;18.20;99.90
36586;DHT22;22591;48.314;11.562;2023-07-13T04:29:04;18.20;99.90
36586;DHT22;22591;48.314;11.562;2023-07-13T04:31:30;18.20;99.90
36586;DHT22;22591;48.314;11.562;2023-07-13T04:33:55;18.20;99.90
36586;DHT22;22591;48.314;11.562;2023-07-13T04:36:22;18.20;99.90
36586;DHT22;22591;48.314;11.562;2023-07-13T04:38:48;18.20;99.90
36586;DHT22;22591;48.314;11.562;2023-07-13T04:41:14;18.10;99.90
36586;DHT22;22591;48.314;11.562;2023-07-13T04:43:40;18.10;99.90
36586;DHT22;22591;48.314;11.562;2023-07-13T04:46:08;18.20;99.90
36586;DHT22;22591;48.314;11.562;2023-07-13T04:48:34;18.20;99.90
36586;DHT22;22591;48.314;11.562;2023-07-13T04:51:00;18.20;99.90
36586;DHT22;22591;48.314;11.562;2023-07-13T04:53:27;18.20;99.90
36586;DHT22;22591;48.314;11.562;2023-07-13T04:55:53;18.20;99.90
36586;DHT22;22591;48.314;11.562;2023-07-13T04:58:18;18.20;99.90
36586;DHT22;22591;48.314;11.562;2023-07-13T05:00:44;18.20;99.90
36586;DHT22;22591;48.314;11.562;2023-07-13T05:03:10;18.30;99.90
36586;DHT22;22591;48.314;11.562;2023-07-13T05:05:35;18.30;99.90
36586;DHT22;22591;48.314;11.562;2023-07-13T05:08:01;18.20;99.90
36586;DHT22;22591;48.314;11.562;2023-07-13T05:10:27;18.30;99.90
36586;DHT22;22591;48.314;11.562;2023-07-13T05:12:53;18.30;99.90
36586;DHT22;22591;48.314;11.562;2023-07-13T05:15:21;18.30;99.90
36586;DHT22;22591;48.314;11.562;2023-07-13T05:17:48;18.30;99.90
36586;DHT22;22591;48.314;11.562;2023-07-13T05:20:14;18.40;99.90
36586;DHT22;22591;48.314;11.562;2023-07-13T05:22:40;18.40;99.90
36586;DHT22;22591;48.314;11.562;2023-07-13T05:25:07;18.50;99.90
36586;DHT22;22591;48.314;11.562;2023-07-13T05:27:33;18.50;99.90
36586;DHT22;22591;48.314;11.562;2023-07-13T05:30:00;18.60;99.90
36586;DHT22;22591;48.314;11.562;2023-07-13T05:32:25;18.60;99.90
36586;DHT22;22591;48.314;11.562;2023-07-13T05:34:51;18.70;99.90
36586;DHT22;22591;48.314;11.562;2023-07-13T05:37:17;18.70;99.90
36586;DHT22;22591;48.314;11.562;2023-07-13T05:39:42;18.50;99.90
36586;DHT22;22591;48.314;11.562;2023-07-13T05:42:08;18.50;99.90
36586;DHT22;22591;48.314;11.562;2023-07-13T05:44:34;18.60;99.90
36586;DHT22;22591;48.314;11.562;2023-07-13T05:46:59;18.60;99.90
36586;DHT22;22591;48.314;11.562;2023-07-13T05:49:25;18.60;99.90
36586;DHT22;22591;48.314;11.562;2023-07-13T05:51:50;18.70;99.90
36586;DHT22;22591;48.314;11.562;2023-07-13T05:54:16;18.80;99.90
36586;DHT22;22591;48.314;11.562;2023-07-13T05:56:41;19.00;99.90
36586;DHT22;22591;48.314;11.562;2023-07-13T05:59:07;19.30;99.90
36586;DHT22;22591;48.314;11.562;2023-07-13T06:01:33;19.70;99.90
36586;DHT22;22591;48.314;11.562;2023-07-13T06:03:58;20.00;99.90
36586;DHT22;22591;48.314;11.562;2023-07-13T06:06:24;20.40;99.90
36586;DHT22;22591;48.314;11.562;2023-07-13T06:08:49;20.60;99.90
36586;DHT22;22591;48.314;11.562;2023-07-13T06:11:20;21.00;99.90
36586;DHT22;22591;48.314;11.562;2023-07-13T06:13:46;21.70;99.90
36586;DHT22;22591;48.314;11.562;2023-07-13T06:16:12;22.10;99.90
36586;DHT22;22591;48.314;11.562;2023-07-13T06:18:39;22.30;99.90
36586;DHT22;22591;48.314;11.562;2023-07-13T06:21:13;22.10;99.90
36586;DHT22;22591;48.314;11.562;2023-07-13T06:23:39;22.30;99.90
36586;DHT22;22591;48.314;11.562;2023-07-13T06:26:06;22.70;99.90
36586;DHT22;22591;48.314;11.562;2023-07-13T06:28:32;23.30;99.90
36586;DHT22;22591;48.314;11.562;2023-07-13T06:30:58;24.40;99.90
36586;DHT22;22591;48.314;11.562;2023-07-13T06:33:26;24.90;99.90
36586;DHT22;22591;48.314;11.562;2023-07-13T06:35:51;25.50;99.90
36586;DHT22;22591;48.314;11.562;2023-07-13T06:38:17;25.90;99.90
36586;DHT22;22591;48.314;11.562;2023-07-13T06:40:43;26.50;99.90
36586;DHT22;22591;48.314;11.562;2023-07-13T06:43:08;26.20;99.90
36586;DHT22;22591;48.314;11.562;2023-07-13T06:45:40;25.50;99.90
36586;DHT22;22591;48.314;11.562;2023-07-13T06:48:06;24.70;99.80
36586;DHT22;22591;48.314;11.562;2023-07-13T06:50:33;24.00;99.90
36586;DHT22;22591;48.314;11.562;2023-07-13T06:52:59;23.30;99.90
36586;DHT22;22591;48.314;11.562;2023-07-13T06:55:25;22.90;99.90
36586;DHT22;22591;48.314;11.562;2023-07-13T06:57:51;22.70;99.90
36586;DHT22;22591;48.314;11.562;2023-07-13T07:00:16;22.50;99.90
36586;DHT22;22591;48.314;11.562;2023-07-13T07:02:42;22.40;99.90
36586;DHT22;22591;48.314;11.562;2023-07-13T07:05:07;22.40;99.90
36586;DHT22;22591;48.314;11.562;2023-07-13T07:07:33;22.30;99.90
36586;DHT22;22591;48.314;11.562;2023-07-13T07:09:59;22.30;99.90
36586;DHT22;22591;48.314;11.562;2023-07-13T07:12:24;22.40;99.90
36586;DHT22;22591;48.314;11.562;2023-07-13T07:14:50;22.70;99.90
36586;DHT22;22591;48.314;11.562;2023-07-13T07:17:15;23.10;99.90
36586;DHT22;22591;48.314;11.562;2023-07-13T07:19:41;23.30;99.90
36586;DHT22;22591;48.314;11.562;2023-07-13T07:22:06;23.30;99.90
36586;DHT22;22591;48.314;11.562;2023-07-13T07:24:32;23.10;99.90
36586;DHT22;22591;48.314;11.562;2023-07-13T07:26:57;22.80;99.90
36586;DHT22;22591;48.314;11.562;2023-07-13T07:29:23;22.50;99.90
36586;DHT22;22591;48.314;11.562;2023-07-13T07:31:51;22.20;99.90
36586;DHT22;22591;48.314;11.562;2023-07-13T07:34:17;22.20;99.90
36586;DHT22;22591;48.314;11.562;2023-07-13T07:36:42;22.10;99.90
36586;DHT22;22591;48.314;11.562;2023-07-13T07:39:08;22.20;99.90
36586;DHT22;22591;48.314;11.562;2023-07-13T07:41:33;22.10;99.90
36586;DHT22;22591;48.314;11.562;2023-07-13T07:43:59;22.20;99.90
36586;DHT22;22591;48.314;11.562;2023-07-13T07:46:25;22.10;99.90
36586;DHT22;22591;48.314;11.562;2023-07-13T07:48:50;22.10;99.90
36586;DHT22;22591;48.314;11.562;2023-07-13T07:51:16;22.00;99.90
36586;DHT22;22591;48.314;11.562;2023-07-13T07:53:41;22.00;99.90
36586;DHT22;22591;48.314;11.562;2023-07-13T07:56:07;22.10;99.90
36586;DHT22;22591;48.314;11.562;2023-07-13T07:58:33;22.20;99.90
36586;DHT22;22591;48.314;11.562;2023-07-13T08:01:03;22.20;99.90
36586;DHT22;22591;48.314;11.562;2023-07-13T08:03:29;22.20;99.90
36586;DHT22;22591;48.314;11.562;2023-07-13T08:05:55;22.00;99.90
36586;DHT22;22591;48.314;11.562;2023-07-13T08:08:20;21.90;99.90
36586;DHT22;22591;48.314;11.562;2023-07-13T08:10:46;21.90;99.90
36586;DHT22;22591;48.314;11.562;2023-07-13T08:13:11;21.80;99.90
36586;DHT22;22591;48.314;11.562;2023-07-13T08:15:37;21.80;99.90
36586;DHT22;22591;48.314;11.562;2023-07-13T08:18:03;21.50;99.90
36586;DHT22;22591;48.314;11.562;2023-07-13T08:20:28;21.30;99.90
36586;DHT22;22591;48.314;11.562;2023-07-13T08:22:54;21.10;99.90
36586;DHT22;22591;48.314;11.562;2023-07-13T08:25:19;20.90;99.90
36586;DHT22;22591;48.314;11.562;2023-07-13T08:27:46;20.80;99.90
36586;DHT22;22591;48.314;11.562;2023-07-13T08:30:12;20.80;99.90
36586;DHT22;22591;48.314;11.562;2023-07-13T08:32:37;21.00;99.90
36586;DHT22;22591;48.314;11.562;2023-07-13T08:35:04;21.20;99.90
36586;DHT22;22591;48.314;11.562;2023-07-13T08:37:30;21.60;99.90
36586;DHT22;22591;48.314;11.562;2023-07-13T08:39:55;22.00;99.90
36586;DHT22;22591;48.314;11.562;2023-07-13T08:42:36;22.20;99.90
36586;DHT22;22591;48.314;11.562;2023-07-13T08:45:11;22.60;99.90
36586;DHT22;22591;48.314;11.562;2023-07-13T08:48:26;22.80;99.90
36586;DHT22;22591;48.314;11.562;2023-07-13T08:50:29;22.90;98.90
36586;DHT22;22591;48.314;11.562;2023-07-13T08:52:56;22.90;99.40
36586;DHT22;22591;48.314;11.562;2023-07-13T08:55:34;22.70;98.70
36586;DHT22;22591;48.314;11.562;2023-07-13T08:58:11;22.40;98.70
36586;DHT22;22591;48.314;11.562;2023-07-13T09:00:56;22.30;98.70
36586;DHT22;22591;48.314;11.562;2023-07-13T09:03:25;22.30;99.40
36586;DHT22;22591;48.314;11.562;2023-07-13T09:05:58;22.60;99.00
36586;DHT22;22591;48.314;11.562;2023-07-13T09:08:46;22.90;99.40
36586;DHT22;22591;48.314;11.562;2023-07-13T09:14:23;22.90;97.80
36586;DHT22;22591;48.314;11.562;2023-07-13T09:16:51;23.10;97.70
36586;DHT22;22591;48.314;11.562;2023-07-13T09:19:26;23.20;97.10
36586;DHT22;22591;48.314;11.562;2023-07-13T09:21:54;23.30;96.70
36586;DHT22;22591;48.314;11.562;2023-07-13T09:26:58;23.40;96.10
36586;DHT22;22591;48.314;11.562;2023-07-13T09:29:33;23.70;95.80
36586;DHT22;22591;48.314;11.562;2023-07-13T09:32:06;24.20;94.30
36586;DHT22;22591;48.314;11.562;2023-07-13T09:34:34;24.40;94.60
36586;DHT22;22591;48.314;11.562;2023-07-13T09:37:00;24.30;93.90
36586;DHT22;22591;48.314;11.562;2023-07-13T09:39:29;24.40;93.50
36586;DHT22;22591;48.314;11.562;2023-07-13T09:42:12;24.40;92.80
36586;DHT22;22591;48.314;11.562;2023-07-13T09:47:19;24.50;91.50
36586;DHT22;22591;48.314;11.562;2023-07-13T09:49:46;24.40;90.30
36586;DHT22;22591;48.314;11.562;2023-07-13T09:52:14;24.40;90.90
36586;DHT22;22591;48.314;11.562;2023-07-13T09:54:45;24.10;91.10
36586;DHT22;22591;48.314;11.562;2023-07-13T09:57:16;24.00;91.50
36586;DHT22;22591;48.314;11.562;2023-07-13T09:59:48;24.20;91.10
36586;DHT22;22591;48.314;11.562;2023-07-13T10:02:32;24.40;90.60
36586;DHT22;22591;48.314;11.562;2023-07-13T10:05:04;24.70;90.10
36586;DHT22;22591;48.314;11.562;2023-07-13T10:07:31;24.90;90.50
36586;DHT22;22591;48.314;11.562;2023-07-13T10:09:59;25.30;89.40
36586;DHT22;22591;48.314;11.562;2023-07-13T10:12:26;25.60;87.30
36586;DHT22;22591;48.314;11.562;2023-07-13T10:14:55;25.80;86.50
36586;DHT22;22591;48.314;11.562;2023-07-13T10:17:28;25.70;85.30
36586;DHT22;22591;48.314;11.562;2023-07-13T10:20:02;25.80;85.80
36586;DHT22;22591;48.314;11.562;2023-07-13T10:22:55;26.00;84.50
36586;DHT22;22591;48.314;11.562;2023-07-13T10:25:26;26.10;82.50
36586;DHT22;22591;48.314;11.562;2023-07-13T10:27:58;26.20;83.00
36586;DHT22;22591;48.314;11.562;2023-07-13T10:30:35;26.60;83.00
36586;DHT22;22591;48.314;11.562;2023-07-13T10:33:10;26.60;80.20
36586;DHT22;22591;48.314;11.562;2023-07-13T10:35:37;26.50;80.20
36586;DHT22;22591;48.314;11.562;2023-07-13T10:38:11;26.70;79.50
36586;DHT22;22591;48.314;11.562;2023-07-13T10:40:45;26.80;77.50
36586;DHT22;22591;48.314;11.562;2023-07-13T10:43:24;27.00;77.60
36586;DHT22;22591;48.314;11.562;2023-07-13T10:45:52;27.40;77.60
36586;DHT22;22591;48.314;11.562;2023-07-13T10:48:21;27.50;76.50
36586;DHT22;22591;48.314;11.562;2023-07-13T10:50:50;27.30;76.70
36586;DHT22;22591;48.314;11.562;2023-07-13T10:53:28;27.30;75.80
36586;DHT22;22591;48.314;11.562;2023-07-13T10:55:59;27.00;75.70
36586;DHT22;22591;48.314;11.562;2023-07-13T10:58:41;26.60;74.60
36586;DHT22;22591;48.314;11.562;2023-07-13T11:01:12;26.30;73.30
36586;DHT22;22591;48.314;11.562;2023-07-13T11:03:55;26.10;74.30
36586;DHT22;22591;48.314;11.562;2023-07-13T11:06:33;26.10;74.50
36586;DHT22;22591;48.314;11.562;2023-07-13T11:09:18;26.30;75.00
36586;DHT22;22591;48.314;11.562;2023-07-13T11:11:44;26.40;72.40
36586;DHT22;22591;48.314;11.562;2023-07-13T11:16:54;26.50;70.80
36586;DHT22;22591;48.314;11.562;2023-07-13T11:27:39;26.40;70.70
36586;DHT22;22591;48.314;11.562;2023-07-13T11:33:03;26.20;71.10
36586;DHT22;22591;48.314;11.562;2023-07-13T11:35:35;26.00;71.30
36586;DHT22;22591;48.314;11.562;2023-07-13T11:38:03;25.70;72.60
36586;DHT22;22591;48.314;11.562;2023-07-13T11:40:34;25.40;76.20
36586;DHT22;22591;48.314;11.562;2023-07-13T11:43:01;25.30;76.90
36586;DHT22;22591;48.314;11.562;2023-07-13T11:45:27;25.30;71.90
36586;DHT22;22591;48.314;11.562;2023-07-13T11:47:53;25.20;72.00
36586;DHT22;22591;48.314;11.562;2023-07-13T11:50:21;25.00;71.70
36586;DHT22;22591;48.314;11.562;2023-07-13T11:52:48;25.10;72.20
36586;DHT22;22591;48.314;11.562;2023-07-13T11:55:17;25.00;72.30
36586;DHT22;22591;48.314;11.562;2023-07-13T11:57:54;25.00;72.20
36586;DHT22;22591;48.314;11.562;2023-07-13T12:00:25;25.00;72.40
36586;DHT22;22591;48.314;11.562;2023-07-13T12:02:54;25.10;71.60
36586;DHT22;22591;48.314;11.562;2023-07-13T12:05:21;24.90;71.20
36586;DHT22;22591;48.314;11.562;2023-07-13T12:07:48;24.80;70.20
36586;DHT22;22591;48.314;11.562;2023-07-13T12:10:17;25.00;70.70
36586;DHT22;22591;48.314;11.562;2023-07-13T12:13:08;25.50;70.50
36586;DHT22;22591;48.314;11.562;2023-07-13T12:15:48;26.30;70.10
36586;DHT22;22591;48.314;11.562;2023-07-13T12:18:20;26.50;67.80
36586;DHT22;22591;48.314;11.562;2023-07-13T12:20:50;26.80;67.20
36586;DHT22;22591;48.314;11.562;2023-07-13T12:23:24;27.10;66.00
36586;DHT22;22591;48.314;11.562;2023-07-13T12:25:51;27.20;65.10
36586;DHT22;22591;48.314;11.562;2023-07-13T12:31:01;27.20;63.60
36586;DHT22;22591;48.314;11.562;2023-07-13T12:33:30;27.10;63.90
36586;DHT22;22591;48.314;11.562;2023-07-13T12:36:01;27.00;63.70
36586;DHT22;22591;48.314;11.562;2023-07-13T12:38:28;26.80;64.10
36586;DHT22;22591;48.314;11.562;2023-07-13T12:40:53;26.90;64.00
36586;DHT22;22591;48.314;11.562;2023-07-13T12:43:21;27.00;64.60
36586;DHT22;22591;48.314;11.562;2023-07-13T12:48:41;27.30;62.20
36586;DHT22;22591;48.314;11.562;2023-07-13T12:51:10;27.50;63.70
36586;DHT22;22591;48.314;11.562;2023-07-13T12:53:41;27.90;62.10
36586;DHT22;22591;48.314;11.562;2023-07-13T12:56:15;28.00;60.80
36586;DHT22;22591;48.314;11.562;2023-07-13T12:58:42;28.10;61.10
36586;DHT22;22591;48.314;11.562;2023-07-13T13:01:10;27.80;61.90
36586;DHT22;22591;48.314;11.562;2023-07-13T13:03:49;27.80;62.00
36586;DHT22;22591;48.314;11.562;2023-07-13T13:08:45;27.40;61.40
36586;DHT22;22591;48.314;11.562;2023-07-13T13:11:11;27.10;61.40
36586;DHT22;22591;48.314;11.562;2023-07-13T13:13:36;27.10;61.60
36586;DHT22;22591;48.314;11.562;2023-07-13T13:16:12;27.20;62.70
36586;DHT22;22591;48.314;11.562;2023-07-13T13:18:39;27.00;61.40
36586;DHT22;22591;48.314;11.562;2023-07-13T13:21:05;26.90;62.00
36586;DHT22;22591;48.314;11.562;2023-07-13T13:23:30;27.10;61.00
36586;DHT22;22591;48.314;11.562;2023-07-13T13:25:57;27.20;60.40
36586;DHT22;22591;48.314;11.562;2023-07-13T13:28:23;27.40;61.00
36586;DHT22;22591;48.314;11.562;2023-07-13T13:30:50;27.10;61.30
36586;DHT22;22591;48.314;11.562;2023-07-13T13:33:18;27.10;61.50
36586;DHT22;22591;48.314;11.562;2023-07-13T13:35:45;27.10;61.40
36586;DHT22;22591;48.314;11.562;2023-07-13T13:38:13;27.20;61.90
36586;DHT22;22591;48.314;11.562;2023-07-13T13:40:40;27.30;61.80
36586;DHT22;22591;48.314;11.562;2023-07-13T13:43:32;27.50;61.90
36586;DHT22;22591;48.314;11.562;2023-07-13T13:45:59;27.80;60.90
36586;DHT22;22591;48.314;11.562;2023-07-13T13:48:34;27.80;60.50
36586;DHT22;22591;48.314;11.562;2023-07-13T13:51:03;27.80;60.70
36586;DHT22;22591;48.314;11.562;2023-07-13T13:53:35;27.90;60.40
36586;DHT22;22591;48.314;11.562;2023-07-13T13:56:01;28.40;60.20
36586;DHT22;22591;48.314;11.562;2023-07-13T13:58:26;28.70;59.90
36586;DHT22;22591;48.314;11.562;2023-07-13T14:00:52;28.80;59.20
36586;DHT22;22591;48.314;11.562;2023-07-13T14:03:19;29.00;58.20
36586;DHT22;22591;48.314;11.562;2023-07-13T14:05:46;29.20;57.70
36586;DHT22;22591;48.314;11.562;2023-07-13T14:08:15;28.90;58.40
36586;DHT22;22591;48.314;11.562;2023-07-13T14:10:41;28.50;57.80
36586;DHT22;22591;48.314;11.562;2023-07-13T14:13:25;28.30;58.90
36586;DHT22;22591;48.314;11.562;2023-07-13T14:15:53;28.60;59.10
36586;DHT22;22591;48.314;11.562;2023-07-13T14:18:18;28.60;59.60
36586;DHT22;22591;48.314;11.562;2023-07-13T14:20:45;28.60;58.20
36586;DHT22;22591;48.314;11.562;2023-07-13T14:23:13;28.70;57.80
36586;DHT22;22591;48.314;11.562;2023-07-13T14:25:39;28.50;57.90
36586;DHT22;22591;48.314;11.562;2023-07-13T14:30:43;27.60;59.30
36586;DHT22;22591;48.314;11.562;2023-07-13T14:33:11;27.50;60.00
36586;DHT22;22591;48.314;11.562;2023-07-13T14:35:37;27.40;60.20
36586;DHT22;22591;48.314;11.562;2023-07-13T14:38:03;27.30;60.20
36586;DHT22;22591;48.314;11.562;2023-07-13T14:40:31;27.30;59.80
36586;DHT22;22591;48.314;11.562;2023-07-13T14:42:57;27.30;60.10
36586;DHT22;22591;48.314;11.562;2023-07-13T14:45:23;27.40;60.40
36586;DHT22;22591;48.314;11.562;2023-07-13T14:47:49;27.50;60.10
36586;DHT22;22591;48.314;11.562;2023-07-13T14:50:18;27.50;60.00
36586;DHT22;22591;48.314;11.562;2023-07-13T14:52:45;27.50;60.10
36586;DHT22;22591;48.314;11.562;2023-07-13T14:55:14;27.60;59.40
36586;DHT22;22591;48.314;11.562;2023-07-13T14:57:40;27.70;59.80
36586;DHT22;22591;48.314;11.562;2023-07-13T15:00:26;27.50;59.70
36586;DHT22;22591;48.314;11.562;2023-07-13T15:02:55;27.20;59.90
36586;DHT22;22591;48.314;11.562;2023-07-13T15:05:26;26.90;60.10
36586;DHT22;22591;48.314;11.562;2023-07-13T15:07:56;26.70;61.20
36586;DHT22;22591;48.314;11.562;2023-07-13T15:10:24;26.60;61.50
36586;DHT22;22591;48.314;11.562;2023-07-13T15:12:52;26.30;62.00
36586;DHT22;22591;48.314;11.562;2023-07-13T15:15:18;26.20;63.10
36586;DHT22;22591;48.314;11.562;2023-07-13T15:17:46;26.30;64.20
36586;DHT22;22591;48.314;11.562;2023-07-13T15:20:16;26.40;63.50
36586;DHT22;22591;48.314;11.562;2023-07-13T15:22:43;26.30;63.10
36586;DHT22;22591;48.314;11.562;2023-07-13T15:25:18;26.30;63.60
36586;DHT22;22591;48.314;11.562;2023-07-13T15:27:44;26.40;62.60
36586;DHT22;22591;48.314;11.562;2023-07-13T15:30:10;26.20;63.20
36586;DHT22;22591;48.314;11.562;2023-07-13T15:32:36;26.10;63.80
36586;DHT22;22591;48.314;11.562;2023-07-13T15:35:02;26.30;64.40
36586;DHT22;22591;48.314;11.562;2023-07-13T15:37:27;26.40;63.60
36586;DHT22;22591;48.314;11.562;2023-07-13T15:39:53;26.70;64.00
36586;DHT22;22591;48.314;11.562;2023-07-13T15:42:20;26.90;63.10
36586;DHT22;22591;48.314;11.562;2023-07-13T15:44:46;27.20;63.00
36586;DHT22;22591;48.314;11.562;2023-07-13T15:47:13;27.60;61.90
36586;DHT22;22591;48.314;11.562;2023-07-13T15:49:40;27.50;61.70
36586;DHT22;22591;48.314;11.562;2023-07-13T15:52:31;27.80;61.50